Time;durP1;ratioP1;P1;durP2;ratioP2;P2;SDS_P1;SDS_P2;PMS_P1;PMS_P2;Temp;Humidity;BMP_temperature;BMP_pressure;BME280_temperature;BME280_humidity;BME280_pressure;Samples;Min_cycle;Max_cycle;Signal;HPM_P1;HPM_P2
2021/08/05 00:02:11;;;;;;;8.20;5.30;;;14.70;99.90;;;;;;3542349;40;20379;-67
2021/08/05 00:04:37;;;;;;;9.32;5.43;;;14.70;99.90;;;;;;3542774;40;20037;-67
2021/08/05 00:07:03;;;;;;;8.23;5.00;;;14.90;99.90;;;;;;3541737;40;20027;-67
2021/08/05 00:09:28;;;;;;;6.82;5.30;;;14.60;99.90;;;;;;3541967;40;20308;-68
2021/08/05 00:11:54;;;;;;;14.32;5.80;;;14.60;99.90;;;;;;3541154;40;20132;-67
2021/08/05 00:14:19;;;;;;;7.10;5.18;;;14.50;99.90;;;;;;3541401;40;20038;-67
2021/08/05 00:16:45;;;;;;;10.80;5.68;;;14.60;99.90;;;;;;3540930;40;20031;-68
2021/08/05 00:19:10;;;;;;;8.13;5.88;;;14.50;99.90;;;;;;3541248;40;20458;-67
2021/08/05 00:21:36;;;;;;;12.27;5.43;;;14.50;99.90;;;;;;3548513;40;20689;-67
2021/08/05 00:24:01;;;;;;;8.57;5.68;;;14.50;99.90;;;;;;3540667;40;20034;-67
2021/08/05 00:26:26;;;;;;;12.23;6.45;;;14.50;99.90;;;;;;3541517;40;20049;-67
2021/08/05 00:28:52;;;;;;;7.60;5.43;;;14.50;99.90;;;;;;3548927;40;20113;-67
2021/08/05 00:31:18;;;;;;;9.55;5.63;;;14.40;99.90;;;;;;3541650;40;20033;-67
2021/08/05 00:33:43;;;;;;;7.07;5.28;;;14.40;99.90;;;;;;3548872;40;20722;-67
2021/08/05 00:36:09;;;;;;;7.22;5.22;;;14.40;99.90;;;;;;3540962;40;20043;-68
2021/08/05 00:38:34;;;;;;;7.85;5.60;;;14.40;99.90;;;;;;3542276;40;20038;-67
2021/08/05 00:41:00;;;;;;;8.13;5.40;;;14.40;99.90;;;;;;3548922;40;20042;-67
2021/08/05 00:43:25;;;;;;;8.80;5.18;;;14.40;99.90;;;;;;3549029;40;20136;-68
2021/08/05 00:45:51;;;;;;;8.10;4.80;;;14.40;99.90;;;;;;3540661;40;20509;-68
2021/08/05 00:48:16;;;;;;;8.02;5.20;;;14.40;99.90;;;;;;3541123;40;20042;-68
2021/08/05 00:50:42;;;;;;;10.85;5.53;;;14.40;99.90;;;;;;3540747;40;20042;-68
2021/08/05 00:53:07;;;;;;;6.65;5.05;;;14.40;99.90;;;;;;3541824;40;20034;-68
2021/08/05 00:55:33;;;;;;;8.88;5.07;;;14.40;99.90;;;;;;3548623;40;20038;-68
2021/08/05 00:57:58;;;;;;;7.60;4.75;;;14.40;99.90;;;;;;3548959;40;20364;-68
2021/08/05 01:00:25;;;;;;;8.30;4.57;;;14.40;99.90;;;;;;3540152;40;20125;-68
2021/08/05 01:02:51;;;;;;;9.52;5.88;;;14.30;99.90;;;;;;3540509;40;20030;-68
2021/08/05 01:05:17;;;;;;;9.23;5.40;;;14.30;99.90;;;;;;3541518;40;20054;-68
2021/08/05 01:07:42;;;;;;;8.18;5.28;;;14.20;99.90;;;;;;3548987;40;20101;-68
2021/08/05 01:10:08;;;;;;;6.40;4.80;;;14.20;99.90;;;;;;3540329;40;20038;-68
2021/08/05 01:12:34;;;;;;;8.13;5.45;;;14.20;99.90;;;;;;3540707;40;20747;-67
2021/08/05 01:14:59;;;;;;;10.30;5.57;;;14.20;99.90;;;;;;3542040;40;20307;-67
2021/08/05 01:17:24;;;;;;;8.40;4.80;;;14.10;99.90;;;;;;3540380;40;20041;-68
2021/08/05 01:19:50;;;;;;;9.13;4.90;;;14.10;99.90;;;;;;3540254;40;20030;-68
2021/08/05 01:22:16;;;;;;;6.93;5.05;;;14.10;99.90;;;;;;3548165;40;20093;-68
2021/08/05 01:24:41;;;;;;;7.93;4.72;;;14.00;99.90;;;;;;3548530;40;20061;-68
2021/08/05 01:27:07;;;;;;;7.60;4.90;;;14.10;99.90;;;;;;3541878;40;20042;-68
2021/08/05 01:29:33;;;;;;;8.55;4.43;;;14.00;99.90;;;;;;3548955;40;20038;-68
2021/08/05 01:31:58;;;;;;;6.97;5.07;;;14.10;99.90;;;;;;3535960;40;20034;-68
2021/08/05 01:34:24;;;;;;;10.05;5.13;;;14.10;99.90;;;;;;3540687;40;20101;-68
2021/08/05 01:36:49;;;;;;;6.22;5.07;;;14.10;99.90;;;;;;3541353;40;20092;-68
2021/08/05 01:39:15;;;;;;;8.85;5.05;;;14.10;99.90;;;;;;3547873;40;20093;-68
2021/08/05 01:41:40;;;;;;;12.45;5.50;;;14.10;99.90;;;;;;3541052;40;20144;-68
2021/08/05 01:44:06;;;;;;;8.85;5.38;;;14.00;99.90;;;;;;3548585;40;20031;-68
2021/08/05 01:46:31;;;;;;;7.35;4.22;;;14.10;99.90;;;;;;3547982;40;20031;-68
2021/08/05 01:48:57;;;;;;;9.75;4.90;;;14.00;99.90;;;;;;3548117;40;20038;-68
2021/08/05 01:51:23;;;;;;;6.75;4.90;;;14.10;99.90;;;;;;3540487;40;20041;-68
2021/08/05 01:53:49;;;;;;;8.25;5.30;;;14.00;99.90;;;;;;3547974;40;20053;-68
2021/08/05 01:56:14;;;;;;;9.65;4.78;;;14.00;99.90;;;;;;3541135;40;20046;-68
2021/08/05 01:58:40;;;;;;;7.57;4.93;;;14.00;99.90;;;;;;3547777;40;20043;-68
2021/08/05 02:01:05;;;;;;;11.30;5.60;;;14.00;99.90;;;;;;3539945;40;20320;-68
2021/08/05 02:03:31;;;;;;;6.00;4.20;;;14.00;99.90;;;;;;3548412;40;20046;-68
2021/08/05 02:05:57;;;;;;;9.70;4.93;;;14.00;99.90;;;;;;3548527;40;20051;-68
2021/08/05 02:08:23;;;;;;;5.90;4.72;;;14.00;99.90;;;;;;3541234;40;20038;-68
2021/08/05 02:10:48;;;;;;;6.93;5.10;;;13.90;99.90;;;;;;3540085;40;20080;-68
2021/08/05 02:13:14;;;;;;;8.32;4.80;;;13.90;99.90;;;;;;3548862;40;20030;-68
2021/08/05 02:15:39;;;;;;;8.10;4.57;;;13.90;99.90;;;;;;3549403;40;20123;-68
2021/08/05 02:18:05;;;;;;;7.85;4.70;;;13.90;99.90;;;;;;3540470;40;20389;-69
2021/08/05 02:20:30;;;;;;;7.38;5.10;;;14.00;99.90;;;;;;3540918;40;20035;-68
2021/08/05 02:22:56;;;;;;;7.53;4.88;;;13.90;99.90;;;;;;3540785;40;20031;-68
2021/08/05 02:25:21;;;;;;;7.05;5.18;;;14.00;99.90;;;;;;3541131;40;20050;-68
2021/08/05 02:27:47;;;;;;;8.45;4.78;;;13.80;99.90;;;;;;3547698;40;20613;-67
2021/08/05 02:30:12;;;;;;;6.35;4.78;;;13.90;99.90;;;;;;3540794;40;20038;-68
2021/08/05 02:32:38;;;;;;;6.50;4.78;;;13.80;99.90;;;;;;3540439;40;20042;-68
2021/08/05 02:35:03;;;;;;;7.57;4.90;;;13.80;99.90;;;;;;3535094;40;20702;-68
2021/08/05 02:37:29;;;;;;;7.10;4.72;;;13.70;99.90;;;;;;3547406;40;20042;-68
2021/08/05 02:39:54;;;;;;;8.70;4.35;;;13.70;99.90;;;;;;3547897;40;20064;-68
2021/08/05 02:42:20;;;;;;;8.77;4.93;;;13.80;99.90;;;;;;3539557;40;20041;-68
2021/08/05 02:44:45;;;;;;;6.90;4.45;;;13.60;99.90;;;;;;3540999;40;20404;-68
2021/08/05 02:47:11;;;;;;;7.80;4.82;;;13.60;99.90;;;;;;3540103;40;20034;-67
2021/08/05 02:49:36;;;;;;;9.52;4.40;;;13.60;99.90;;;;;;3540774;40;20031;-68
2021/08/05 02:52:02;;;;;;;6.65;4.35;;;13.60;99.90;;;;;;3547886;40;20427;-68
2021/08/05 02:54:28;;;;;;;6.90;4.78;;;13.60;99.90;;;;;;3538701;40;20041;-60
2021/08/05 02:56:54;;;;;;;9.82;4.80;;;13.60;99.90;;;;;;3539997;40;20038;-61
2021/08/05 02:59:19;;;;;;;7.00;4.20;;;13.60;99.90;;;;;;3541132;40;20068;-60
2021/08/05 03:01:45;;;;;;;10.57;4.75;;;13.60;99.90;;;;;;3539650;40;20038;-60
2021/08/05 03:04:10;;;;;;;10.70;4.63;;;13.60;99.90;;;;;;3541001;40;20034;-60
2021/08/05 03:06:36;;;;;;;6.82;4.60;;;13.60;99.90;;;;;;3540275;40;20124;-61
2021/08/05 03:09:01;;;;;;;6.45;4.40;;;13.60;99.90;;;;;;3540506;40;20124;-61
2021/08/05 03:11:27;;;;;;;6.28;4.80;;;13.60;99.90;;;;;;3540789;40;20034;-61
2021/08/05 03:13:52;;;;;;;8.02;4.68;;;13.60;99.90;;;;;;3541519;40;20049;-60
2021/08/05 03:16:18;;;;;;;7.82;4.80;;;13.60;99.90;;;;;;3541565;40;20034;-60
2021/08/05 03:18:43;;;;;;;8.93;4.65;;;13.60;99.90;;;;;;3541917;40;20023;-60
2021/08/05 03:21:09;;;;;;;7.88;4.47;;;13.60;99.90;;;;;;3540235;40;20042;-60
2021/08/05 03:23:34;;;;;;;9.88;4.07;;;13.60;99.90;;;;;;3541615;40;20030;-60
2021/08/05 03:26:00;;;;;;;6.75;4.45;;;13.60;99.90;;;;;;3541810;40;20035;-60
2021/08/05 03:28:25;;;;;;;7.35;4.18;;;13.60;99.90;;;;;;3542006;40;20427;-60
2021/08/05 03:30:51;;;;;;;10.80;4.68;;;13.70;99.90;;;;;;3540184;40;20696;-60
2021/08/05 03:33:16;;;;;;;8.48;4.30;;;13.70;99.90;;;;;;3541954;40;20050;-60
2021/08/05 03:35:42;;;;;;;8.32;4.55;;;13.70;99.90;;;;;;3541781;40;20428;-60
2021/08/05 03:38:07;;;;;;;7.57;4.50;;;13.70;99.90;;;;;;3540303;40;20031;-60
2021/08/05 03:40:33;;;;;;;5.22;4.00;;;13.80;99.90;;;;;;3542257;40;20399;-60
2021/08/05 03:42:58;;;;;;;6.25;3.95;;;13.70;99.90;;;;;;3541963;40;20030;-60
2021/08/05 03:45:24;;;;;;;5.72;4.43;;;13.70;99.90;;;;;;3542306;40;20039;-60
2021/08/05 03:47:49;;;;;;;7.15;3.97;;;13.70;99.90;;;;;;3542107;40;20030;-60
2021/08/05 03:50:14;;;;;;;5.10;3.50;;;13.80;99.90;;;;;;3541135;40;20038;-60
2021/08/05 03:52:40;;;;;;;7.97;3.80;;;14.10;99.90;;;;;;3541799;40;20050;-61
2021/08/05 03:55:06;;;;;;;6.65;3.88;;;13.80;99.90;;;;;;3542131;40;20688;-60
2021/08/05 03:57:31;;;;;;;8.32;3.58;;;13.90;99.90;;;;;;3542228;40;20078;-60
2021/08/05 03:59:57;;;;;;;4.90;3.47;;;13.90;99.90;;;;;;3541623;40;20559;-60
2021/08/05 04:02:22;;;;;;;7.07;4.20;;;14.00;99.90;;;;;;3541516;40;20068;-60
2021/08/05 04:04:48;;;;;;;6.43;3.88;;;14.00;99.90;;;;;;3540765;40;20046;-60
2021/08/05 04:07:13;;;;;;;9.73;3.72;;;14.10;99.90;;;;;;3541866;40;20069;-60
2021/08/05 04:09:39;;;;;;;6.68;4.25;;;14.00;99.90;;;;;;3541941;40;20112;-60
2021/08/05 04:12:04;;;;;;;8.38;4.00;;;14.10;99.90;;;;;;3541318;40;20046;-60
2021/08/05 04:14:30;;;;;;;6.47;4.18;;;14.20;99.90;;;;;;3541637;40;20419;-60
2021/08/05 04:16:55;;;;;;;7.90;3.97;;;14.20;99.90;;;;;;3541841;40;20026;-60
2021/08/05 04:19:21;;;;;;;10.82;3.70;;;14.20;99.90;;;;;;3540471;40;20405;-60
2021/08/05 04:21:50;;;;;;;7.65;3.58;;;14.30;99.90;;;;;;3541295;40;20074;-60
2021/08/05 04:24:15;;;;;;;7.55;4.00;;;14.40;99.90;;;;;;3541991;40;20034;-60
2021/08/05 04:26:40;;;;;;;7.13;3.40;;;14.40;99.90;;;;;;3542007;40;20502;-60
2021/08/05 04:29:06;;;;;;;6.88;4.13;;;14.40;99.90;;;;;;3541869;40;20045;-61
2021/08/05 04:31:31;;;;;;;10.85;3.90;;;14.50;99.90;;;;;;3541613;40;20038;-60
2021/08/05 04:33:57;;;;;;;8.63;3.42;;;14.60;99.90;;;;;;3538467;40;20125;-61
2021/08/05 04:36:22;;;;;;;8.77;3.35;;;14.60;99.90;;;;;;3541820;40;20042;-61
2021/08/05 04:38:48;;;;;;;7.35;3.55;;;14.60;99.90;;;;;;3541791;40;20104;-60
2021/08/05 04:41:13;;;;;;;5.97;3.08;;;14.60;99.90;;;;;;3541555;40;20038;-60
2021/08/05 04:43:39;;;;;;;6.72;3.67;;;14.70;99.90;;;;;;3541825;40;20035;-60
2021/08/05 04:46:04;;;;;;;4.15;3.05;;;14.80;99.90;;;;;;3541835;40;20701;-61
2021/08/05 04:48:31;;;;;;;4.90;3.30;;;14.90;99.90;;;;;;3541575;40;20070;-61
2021/08/05 04:50:56;;;;;;;12.13;3.10;;;15.00;99.90;;;;;;3541562;40;20031;-60
2021/08/05 04:53:22;;;;;;;11.75;3.80;;;15.10;99.90;;;;;;3541571;40;20077;-60
2021/08/05 04:55:47;;;;;;;5.90;2.97;;;15.20;99.90;;;;;;3541849;40;20022;-60
2021/08/05 04:58:13;;;;;;;9.43;3.30;;;15.30;99.90;;;;;;3541439;40;20092;-61
2021/08/05 05:00:38;;;;;;;10.70;3.17;;;15.50;99.90;;;;;;3541845;40;20030;-61
2021/08/05 05:03:04;;;;;;;11.10;3.00;;;15.60;99.90;;;;;;3541332;40;20786;-60
2021/08/05 05:05:29;;;;;;;3.80;2.72;;;15.70;99.90;;;;;;3541740;40;20062;-60
2021/08/05 05:07:55;;;;;;;4.78;3.00;;;15.80;99.90;;;;;;3541780;40;20380;-61
2021/08/05 05:10:20;;;;;;;6.38;3.10;;;15.90;99.90;;;;;;3541727;40;20140;-61
2021/08/05 05:12:46;;;;;;;8.45;2.88;;;16.00;99.90;;;;;;3541586;40;20031;-60
2021/08/05 05:15:12;;;;;;;6.75;2.92;;;16.00;99.90;;;;;;3541763;40;20312;-61
2021/08/05 05:17:37;;;;;;;8.55;3.10;;;16.10;99.90;;;;;;3541656;40;20730;-60
2021/08/05 05:20:02;;;;;;;5.53;2.80;;;16.10;99.90;;;;;;3541519;40;20139;-60
2021/08/05 05:22:28;;;;;;;5.50;2.95;;;16.20;99.90;;;;;;3541055;40;20034;-61
2021/08/05 05:24:53;;;;;;;7.30;3.17;;;16.20;99.90;;;;;;3541644;40;20043;-61
2021/08/05 05:27:19;;;;;;;6.35;2.65;;;16.30;99.90;;;;;;3538952;40;20030;-61
2021/08/05 05:29:44;;;;;;;5.28;2.75;;;16.30;99.90;;;;;;3541455;40;20033;-61
2021/08/05 05:32:10;;;;;;;7.82;3.22;;;16.40;99.90;;;;;;3541092;40;20043;-61
2021/08/05 05:34:35;;;;;;;9.57;3.13;;;16.50;99.90;;;;;;3541071;40;20495;-61
2021/08/05 05:37:01;;;;;;;4.22;3.00;;;16.50;99.90;;;;;;3540469;40;20057;-61
2021/08/05 05:39:26;;;;;;;4.50;3.10;;;16.60;99.90;;;;;;3541184;40;20101;-61
2021/08/05 05:41:52;;;;;;;8.55;2.90;;;16.70;99.90;;;;;;3540916;40;20136;-60
2021/08/05 05:44:17;;;;;;;7.82;2.97;;;16.80;99.90;;;;;;3541205;40;20037;-61
2021/08/05 05:46:43;;;;;;;4.65;3.03;;;17.00;99.90;;;;;;3541677;40;20120;-61
2021/08/05 05:49:08;;;;;;;5.85;2.83;;;17.20;99.90;;;;;;3548519;40;20102;-60
2021/08/05 05:51:34;;;;;;;4.93;3.05;;;17.20;99.90;;;;;;3540634;40;20523;-61
2021/08/05 05:53:59;;;;;;;5.13;3.20;;;17.40;99.90;;;;;;3541534;40;20042;-61
2021/08/05 05:56:24;;;;;;;9.45;3.53;;;17.60;99.90;;;;;;3541489;40;20045;-61
2021/08/05 05:58:50;;;;;;;5.13;3.22;;;17.80;99.90;;;;;;3539013;40;20042;-60
2021/08/05 06:01:15;;;;;;;6.65;3.08;;;17.90;99.90;;;;;;3537668;40;20165;-61
2021/08/05 06:03:41;;;;;;;12.95;5.82;;;18.10;99.90;;;;;;3541377;40;20034;-61
2021/08/05 06:06:06;;;;;;;13.32;7.03;;;18.10;99.90;;;;;;3541187;40;20120;-61
2021/08/05 06:08:32;;;;;;;35.05;15.90;;;17.80;99.90;;;;;;3541019;40;20042;-61
2021/08/05 06:10:57;;;;;;;8.63;3.90;;;18.20;99.90;;;;;;3540974;40;20316;-61
2021/08/05 06:13:23;;;;;;;7.45;4.93;;;18.10;99.90;;;;;;3540826;40;20063;-61
2021/08/05 06:15:48;;;;;;;12.68;4.28;;;18.20;99.90;;;;;;3541414;40;20026;-61
2021/08/05 06:18:14;;;;;;;9.95;4.00;;;18.40;99.90;;;;;;3540957;40;20510;-61
2021/08/05 06:20:42;;;;;;;9.30;3.53;;;18.50;99.90;;;;;;3539472;40;20030;-61
2021/08/05 06:23:08;;;;;;;5.57;3.20;;;18.60;99.90;;;;;;3540826;40;20041;-61
2021/08/05 06:25:34;;;;;;;3.95;3.15;;;18.60;99.90;;;;;;3547714;40;20387;-61
2021/08/05 06:27:59;;;;;;;4.45;3.28;;;18.70;99.90;;;;;;3540786;40;20424;-69
2021/08/05 06:30:25;;;;;;;11.07;4.90;;;18.80;99.90;;;;;;3540659;40;20292;-69
2021/08/05 06:32:52;;;;;;;6.13;3.33;;;19.00;99.90;;;;;;3540670;40;20039;-69
2021/08/05 06:35:18;;;;;;;5.93;3.28;;;19.20;99.90;;;;;;3541251;40;20031;-70
2021/08/05 06:37:43;;;;;;;11.52;4.68;;;19.30;99.90;;;;;;3540861;40;20049;-68
2021/08/05 06:40:09;;;;;;;4.90;3.40;;;19.40;99.90;;;;;;3541326;40;20510;-66
2021/08/05 06:42:34;;;;;;;15.55;3.50;;;19.30;99.90;;;;;;3539725;40;20034;-68
2021/08/05 06:45:00;;;;;;;7.57;3.85;;;19.40;99.90;;;;;;3541082;40;20061;-67
2021/08/05 06:47:25;;;;;;;9.20;5.35;;;19.40;99.90;;;;;;3541885;40;20049;-67
2021/08/05 06:49:51;;;;;;;6.97;3.70;;;19.70;99.90;;;;;;3541092;40;20510;-67
2021/08/05 06:52:16;;;;;;;10.02;5.10;;;19.80;99.90;;;;;;3541781;40;20540;-67
2021/08/05 06:54:42;;;;;;;13.65;5.03;;;19.90;99.90;;;;;;3541605;40;20439;-67
2021/08/05 06:57:07;;;;;;;9.55;5.38;;;20.10;99.90;;;;;;3541705;40;20046;-67
2021/08/05 06:59:33;;;;;;;7.20;4.25;;;20.00;99.90;;;;;;3541161;40;20635;-67
2021/08/05 07:01:59;;;;;;;6.60;4.30;;;19.90;99.90;;;;;;3541720;40;20050;-67
2021/08/05 07:04:25;;;;;;;14.93;5.50;;;19.90;99.90;;;;;;3541677;40;20694;-67
2021/08/05 07:06:50;;;;;;;10.13;4.95;;;19.90;99.90;;;;;;3541424;40;20030;-67
2021/08/05 07:09:16;;;;;;;13.60;4.38;;;19.80;99.90;;;;;;3541208;40;20030;-66
2021/08/05 07:11:41;;;;;;;7.90;3.55;;;19.90;99.90;;;;;;3540387;40;20041;-67
2021/08/05 07:14:07;;;;;;;5.68;3.30;;;19.90;99.90;;;;;;3539848;40;20112;-67
2021/08/05 07:16:32;;;;;;;7.72;3.70;;;20.10;99.90;;;;;;3541337;40;20030;-67
2021/08/05 07:18:58;;;;;;;10.77;3.40;;;20.10;99.90;;;;;;3540700;40;20042;-67
2021/08/05 07:21:23;;;;;;;11.95;5.45;;;20.20;99.90;;;;;;3540935;40;20041;-67
2021/08/05 07:23:49;;;;;;;8.10;4.05;;;20.30;99.90;;;;;;3540671;40;20380;-67
2021/08/05 07:26:14;;;;;;;7.10;3.63;;;20.40;99.90;;;;;;3541020;40;20026;-67
2021/08/05 07:28:39;;;;;;;6.28;3.53;;;20.30;99.90;;;;;;3541249;40;20054;-67
2021/08/05 07:31:05;;;;;;;7.72;2.95;;;20.40;99.90;;;;;;3537984;40;20816;-67
2021/08/05 07:33:30;;;;;;;6.20;3.20;;;20.50;99.90;;;;;;3541358;40;20049;-67
2021/08/05 07:35:56;;;;;;;7.53;3.97;;;20.90;99.90;;;;;;3540752;40;20042;-67
2021/08/05 07:38:23;;;;;;;8.02;3.70;;;20.80;99.90;;;;;;3541350;40;20419;-67
2021/08/05 07:40:48;;;;;;;5.57;3.63;;;20.70;99.90;;;;;;3540295;40;20018;-66
2021/08/05 07:43:14;;;;;;;7.90;3.67;;;20.80;99.90;;;;;;3540823;40;20030;-65
2021/08/05 07:45:39;;;;;;;7.30;4.15;;;20.80;99.90;;;;;;3540775;40;20045;-65
2021/08/05 07:48:05;;;;;;;11.98;4.03;;;20.70;99.90;;;;;;3540616;40;20030;-65
2021/08/05 07:50:30;;;;;;;7.18;3.65;;;20.90;99.90;;;;;;3540439;40;20132;-65
2021/08/05 07:52:56;;;;;;;7.95;3.70;;;20.90;99.90;;;;;;3540657;40;20050;-64
2021/08/05 07:55:21;;;;;;;7.10;3.72;;;20.70;99.90;;;;;;3539227;40;20034;-65
2021/08/05 07:57:47;;;;;;;5.85;3.83;;;20.60;99.90;;;;;;3538083;40;20618;-68
2021/08/05 08:00:12;;;;;;;10.40;3.97;;;20.80;99.90;;;;;;3538673;40;20022;-67
2021/08/05 08:02:41;;;;;;;10.48;5.65;;;21.00;99.90;;;;;;3540571;40;20132;-67
2021/08/05 08:05:06;;;;;;;16.45;9.88;;;21.10;99.90;;;;;;3540588;40;20049;-67
2021/08/05 08:07:31;;;;;;;14.18;7.03;;;21.20;99.90;;;;;;3541031;40;20049;-68
2021/08/05 08:09:57;;;;;;;11.20;5.07;;;21.30;99.90;;;;;;3540338;40;20824;-67
2021/08/05 08:12:23;;;;;;;7.13;3.45;;;21.40;99.90;;;;;;3540646;40;20039;-67
2021/08/05 08:14:48;;;;;;;5.85;3.47;;;21.40;99.90;;;;;;3539342;40;20046;-66
2021/08/05 08:17:14;;;;;;;8.75;3.47;;;21.30;99.90;;;;;;3539846;40;20030;-66
2021/08/05 08:19:39;;;;;;;4.88;3.00;;;21.30;99.90;;;;;;3540553;40;20520;-67
2021/08/05 08:22:06;;;;;;;4.72;3.00;;;21.40;99.90;;;;;;3540579;40;20042;-67
2021/08/05 08:24:32;;;;;;;9.20;3.90;;;21.30;99.90;;;;;;3540960;40;20829;-67
2021/08/05 08:26:57;;;;;;;6.32;2.83;;;21.20;99.90;;;;;;3547121;40;20046;-67
2021/08/05 08:29:23;;;;;;;5.53;2.97;;;21.10;99.90;;;;;;3541284;40;20603;-68
2021/08/05 08:31:49;;;;;;;6.88;3.30;;;21.30;99.90;;;;;;3540656;40;20042;-67
2021/08/05 08:34:14;;;;;;;9.32;4.20;;;21.40;99.90;;;;;;3540354;40;20058;-67
2021/08/05 08:36:42;;;;;;;5.22;3.78;;;21.60;99.90;;;;;;3541540;40;20108;-67
2021/08/05 08:39:07;;;;;;;7.85;4.40;;;21.50;99.90;;;;;;3539503;40;20030;-67
2021/08/05 08:41:33;;;;;;;10.70;4.53;;;21.80;99.90;;;;;;3540169;40;20064;-67
2021/08/05 08:43:59;;;;;;;10.18;5.07;;;21.90;99.90;;;;;;3542179;40;20054;-67
2021/08/05 08:46:24;;;;;;;10.93;5.28;;;22.30;99.90;;;;;;3542526;40;20044;-66
2021/08/05 08:48:50;;;;;;;10.70;5.97;;;22.40;99.90;;;;;;3542018;40;20447;-67
2021/08/05 08:51:15;;;;;;;10.65;5.75;;;22.60;99.90;;;;;;3540242;40;20407;-67
2021/08/05 08:53:41;;;;;;;14.95;7.40;;;22.60;99.90;;;;;;3540775;40;20045;-67
2021/08/05 08:56:06;;;;;;;9.02;5.28;;;22.90;99.90;;;;;;3539852;40;20041;-67
2021/08/05 08:58:32;;;;;;;9.02;4.90;;;23.10;99.90;;;;;;3539393;40;20677;-67
2021/08/05 09:00:57;;;;;;;10.50;4.30;;;23.10;99.90;;;;;;3540001;40;20177;-67
2021/08/05 09:03:23;;;;;;;8.15;4.28;;;23.00;99.90;;;;;;3540496;40;20045;-67
2021/08/05 09:05:48;;;;;;;10.38;5.80;;;23.00;99.90;;;;;;3540464;40;20031;-67
2021/08/05 09:08:14;;;;;;;10.73;6.28;;;23.00;99.90;;;;;;3539570;40;20074;-68
2021/08/05 09:10:39;;;;;;;7.80;4.65;;;22.80;99.90;;;;;;3539776;40;20042;-66
2021/08/05 09:13:05;;;;;;;7.55;3.97;;;22.70;99.90;;;;;;3539236;40;20038;-68
2021/08/05 09:15:31;;;;;;;5.97;3.80;;;22.70;99.90;;;;;;3540867;40;20123;-67
2021/08/05 09:17:56;;;;;;;7.18;3.80;;;22.50;99.90;;;;;;3541284;40;20720;-67
2021/08/05 09:20:22;;;;;;;7.97;3.90;;;22.70;99.90;;;;;;3540757;40;20022;-68
2021/08/05 09:22:47;;;;;;;6.07;3.72;;;22.60;99.90;;;;;;3541695;40;20025;-66
2021/08/05 09:25:13;;;;;;;7.95;3.60;;;22.70;99.90;;;;;;3539883;40;20428;-66
2021/08/05 09:27:38;;;;;;;8.00;3.85;;;23.00;99.90;;;;;;3541783;40;20038;-66
2021/08/05 09:30:04;;;;;;;7.30;3.65;;;23.40;98.80;;;;;;3542129;40;20054;-66
2021/08/05 09:32:29;;;;;;;6.55;3.40;;;23.20;99.30;;;;;;3540656;40;20050;-66
2021/08/05 09:34:54;;;;;;;11.20;6.00;;;23.20;99.50;;;;;;3540130;40;20128;-60
2021/08/05 09:37:20;;;;;;;7.80;4.18;;;23.60;99.70;;;;;;3541395;40;20030;-59
2021/08/05 09:39:45;;;;;;;4.13;2.72;;;23.80;98.60;;;;;;3541415;40;20041;-59
2021/08/05 09:42:11;;;;;;;9.68;5.45;;;24.00;98.60;;;;;;3539381;40;20046;-60
2021/08/05 09:44:36;;;;;;;8.18;3.10;;;24.40;98.10;;;;;;3541085;40;20122;-67
2021/08/05 09:47:02;;;;;;;6.55;3.00;;;24.60;97.80;;;;;;3540961;40;20031;-67
2021/08/05 09:49:29;;;;;;;5.60;2.63;;;25.00;96.90;;;;;;3541129;40;20034;-67
2021/08/05 09:51:54;;;;;;;9.52;2.58;;;25.20;95.50;;;;;;3540787;40;20042;-67
2021/08/05 09:54:20;;;;;;;10.05;2.92;;;25.30;96.10;;;;;;3540258;40;20038;-67
2021/08/05 09:56:45;;;;;;;4.30;2.58;;;25.00;95.30;;;;;;3540843;40;20066;-67
2021/08/05 09:59:11;;;;;;;4.18;2.20;;;25.20;95.20;;;;;;3541039;40;20034;-66
2021/08/05 10:01:36;;;;;;;4.88;2.00;;;25.10;95.90;;;;;;3547276;40;20038;-67
2021/08/05 10:04:02;;;;;;;7.95;3.97;;;25.00;96.00;;;;;;3541041;40;20405;-66
2021/08/05 10:06:28;;;;;;;4.47;2.25;;;;;;;;;;3547696;40;20036;-67
2021/08/05 10:08:54;;;;;;;5.10;3.20;;;;;;;;;;3540920;40;20046;-60
2021/08/05 10:11:19;;;;;;;5.38;3.35;;;;;;;;;;3540354;40;20031;-66
2021/08/05 10:13:45;;;;;;;6.82;3.33;;;;;;;;;;3540808;40;20038;-67
2021/08/05 10:16:15;;;;;;;4.82;2.22;;;;;;;;;;3540565;40;20069;-60
2021/08/05 10:18:41;;;;;;;5.57;2.03;;;;;;;;;;3540598;40;20034;-67
2021/08/05 10:21:07;;;;;;;6.50;2.17;;;;;;;;;;3541934;40;20047;-67
2021/08/05 10:23:33;;;;;;;2.97;1.90;;;;;;;;;;3541706;40;20132;-67
2021/08/05 10:25:59;;;;;;;3.33;2.08;;;24.70;95.70;;;;;;3541934;40;20053;-67
2021/08/05 10:28:25;;;;;;;4.93;2.28;;;;;;;;;;3542752;40;20042;-67
2021/08/05 10:30:51;;;;;;;3.53;2.10;;;;;;;;;;3541773;40;20030;-67
2021/08/05 10:33:17;;;;;;;4.63;3.10;;;;;;;;;;3543728;40;20136;-66
2021/08/05 10:35:47;;;;;;;5.57;3.58;;;;;;;;;;3543280;40;20076;-66
2021/08/05 10:38:13;;;;;;;5.30;3.33;;;;;;;;;;3550064;40;20078;-66
2021/08/05 10:40:39;;;;;;;3.30;2.58;;;;;;;;;;3541292;40;20029;-68
2021/08/05 10:43:05;;;;;;;5.82;3.30;;;;;;;;;;3542015;40;20169;-67
2021/08/05 10:45:32;;;;;;;3.95;2.30;;;25.20;95.50;;;;;;3542046;40;20057;-67
2021/08/05 10:47:57;;;;;;;5.43;2.20;;;25.10;94.00;;;;;;3543441;40;20031;-67
2021/08/05 10:50:23;;;;;;;3.90;2.00;;;25.00;99.00;;;;;;3542180;40;20520;-67
2021/08/05 10:52:49;;;;;;;6.57;2.22;;;;;;;;;;3548315;40;20042;-67
2021/08/05 10:55:15;;;;;;;2.88;1.95;;;24.80;94.30;;;;;;3541710;40;20061;-67
2021/08/05 10:57:40;;;;;;;5.25;2.20;;;25.00;94.10;;;;;;3541341;40;20031;-66
2021/08/05 11:00:06;;;;;;;9.55;5.80;;;25.10;93.20;;;;;;3541131;40;20535;-67
2021/08/05 11:02:31;;;;;;;32.95;16.10;;;25.40;93.80;;;;;;3547975;40;20400;-67
2021/08/05 11:04:56;;;;;;;17.85;6.47;;;25.20;93.40;;;;;;3540910;40;20038;-67
2021/08/05 11:07:22;;;;;;;7.32;2.75;;;25.30;93.10;;;;;;3541558;40;20379;-67
2021/08/05 11:09:47;;;;;;;10.95;2.92;;;25.10;93.40;;;;;;3541064;40;20068;-67
2021/08/05 11:12:13;;;;;;;7.63;2.22;;;24.90;93.80;;;;;;3541346;40;20118;-69
2021/08/05 11:14:38;;;;;;;4.10;2.20;;;25.00;93.30;;;;;;3541622;40;20408;-66
2021/08/05 11:17:04;;;;;;;4.43;2.33;;;25.20;93.10;;;;;;3540964;40;20027;-65
2021/08/05 11:19:29;;;;;;;5.30;2.40;;;25.50;94.20;;;;;;3542083;40;20038;-66
2021/08/05 11:21:55;;;;;;;8.32;2.33;;;25.80;94.40;;;;;;3540244;40;20034;-66
2021/08/05 11:24:20;;;;;;;7.32;2.35;;;25.90;92.90;;;;;;3541311;40;20042;-65
2021/08/05 11:26:46;;;;;;;5.78;2.65;;;26.10;92.50;;;;;;3540618;40;20038;-65
2021/08/05 11:29:11;;;;;;;3.53;2.50;;;25.80;92.50;;;;;;3541780;40;20420;-65
2021/08/05 11:31:38;;;;;;;3.25;2.28;;;26.10;93.10;;;;;;3540620;40;20065;-66
2021/08/05 11:34:06;;;;;;;2.92;2.20;;;26.40;91.60;;;;;;3541288;40;20053;-65
2021/08/05 11:36:34;;;;;;;3.97;2.30;;;26.40;91.60;;;;;;3540365;40;20093;-66
2021/08/05 11:39:00;;;;;;;3.15;2.33;;;26.20;91.70;;;;;;3541175;40;20042;-65
2021/08/05 11:41:25;;;;;;;4.15;2.42;;;26.00;92.10;;;;;;3541509;40;20128;-65
2021/08/05 11:43:51;;;;;;;3.90;1.92;;;26.00;90.70;;;;;;3541346;40;20731;-66
2021/08/05 11:46:16;;;;;;;5.57;2.50;;;26.10;91.80;;;;;;3540652;40;20132;-65
2021/08/05 11:48:42;;;;;;;5.13;2.10;;;26.60;90.50;;;;;;3541395;40;20120;-67
2021/08/05 11:51:07;;;;;;;5.82;2.60;;;26.80;89.90;;;;;;3540290;40;20046;-66
2021/08/05 11:53:33;;;;;;;9.85;2.88;;;27.00;90.90;;;;;;3540779;40;20310;-66
2021/08/05 11:55:58;;;;;;;4.63;2.20;;;27.20;90.20;;;;;;3540988;40;20124;-66
2021/08/05 11:58:23;;;;;;;7.13;2.10;;;27.60;88.50;;;;;;3540765;40;20843;-66
2021/08/05 12:00:49;;;;;;;8.40;2.08;;;27.30;88.60;;;;;;3540622;40;20053;-66
2021/08/05 12:03:16;;;;;;;3.00;2.00;;;26.80;90.20;;;;;;3540658;40;20045;-66
2021/08/05 12:05:42;;;;;;;2.90;1.85;;;26.70;90.80;;;;;;3541295;40;20038;-66
2021/08/05 12:08:07;;;;;;;4.80;2.60;;;26.50;89.10;;;;;;3539158;40;20026;-66
2021/08/05 12:10:33;;;;;;;3.45;2.13;;;26.30;90.50;;;;;;3540385;40;20039;-66
2021/08/05 12:13:00;;;;;;;13.07;3.65;;;26.20;88.80;;;;;;3539092;40;20587;-66
2021/08/05 12:15:26;;;;;;;6.47;3.85;;;26.00;91.20;;;;;;3540685;40;20037;-66
2021/08/05 12:17:51;;;;;;;4.00;2.20;;;26.10;90.70;;;;;;3540911;40;20038;-66
2021/08/05 12:20:17;;;;;;;6.10;2.10;;;26.10;91.10;;;;;;3540816;40;20050;-66
2021/08/05 12:22:42;;;;;;;4.88;2.20;;;26.30;93.00;;;;;;3540096;40;20057;-66
2021/08/05 12:25:11;;;;;;;6.18;2.50;;;26.00;90.50;;;;;;3540277;40;20510;-66
2021/08/05 12:27:36;;;;;;;4.47;2.67;;;25.90;90.70;;;;;;3540515;40;20019;-66
2021/08/05 12:30:04;;;;;;;3.67;2.67;;;26.10;92.20;;;;;;3548090;40;20095;-66
2021/08/05 12:32:29;;;;;;;3.80;2.05;;;26.30;92.20;;;;;;3541277;40;20057;-66
2021/08/05 12:34:55;;;;;;;6.25;3.90;;;25.40;92.80;;;;;;3541909;40;20034;-66
2021/08/05 12:37:21;;;;;;;6.68;3.38;;;26.20;93.30;;;;;;3541684;40;20050;-67
2021/08/05 12:39:46;;;;;;;3.20;2.33;;;25.90;90.90;;;;;;3542481;40;20026;-66
2021/08/05 12:42:12;;;;;;;3.90;2.15;;;26.10;94.20;;;;;;3541916;40;20042;-66